首页
METAR-TAF:

METAR-TAF

机场 :

伊萨卡, 紐約州, 美国

纬度: 42-29N, 经度: 076-27W, 海拔: 335米

当前天气观测

该预报发布于39分钟前的23:56 UTC
风速7节,风向西北
温度 22°C
湿度 60%
气压 1014 hPa
能見度: 16.1公里
天空无云

METAR: KITH 252356Z 32007KT 10SM CLR 22/14 A2993 RMK AO2 SLP129 T02170139 10278 20217 53015

时间: 20:35 (00:35 UTC)

预报

该预报发布于1小时和7分钟前的23:28 UTC
预报有效从26日的 00点(UTC)到 26日的 24点(UTC)
风速9节,风向西转西北
能見度: 10公里
少量云层高于8000英尺
从 26日的 0300点(UTC)
风速4节,风向多变
能見度: 10公里
少量云层高于8000英尺
从 26日的 1500点(UTC)
风速8节,风向西南
能見度: 10公里
少量云层高于5000英尺
散云层高于7000英尺
从 26日的 2000点(UTC)
风速9节,风向西,有时为15节阵风
能見度: 10公里
多云层高于4000英尺

TAF: KITH 252328Z 2600/2624 30009KT P6SM FEW080 FM260300 VRB04KT P6SM FEW080 FM261500 22008KT P6SM FEW050 SCT070 FM262000 26009G15KT P6SM BKN040

超过4000个机场的气象观测和天气预报(METAR&TAF报告)。

可查询的气象台以黄色和红色小点在地图上表示。

将鼠标移到小点上方,可查看气象台名称。

然后点击查看天气观测和预报。

如需切换地图:点击带黑十字的绿色按钮放大地图;点击带横线的绿色按钮缩小地图;或者点击绿色箭头查看邻近地区的地图。


METAR-TAF: